sensor_id;sensor_type;location;lat;lon;timestamp;pressure;altitude;pressure_sealevel;temperature;humidity
41862;BME280;27537;57.134;-2.136;2023-04-05T00:02:19;101081.44;;;7.84;100.00
41862;BME280;27537;57.134;-2.136;2023-04-05T00:04:46;101080.09;;;7.65;100.00
41862;BME280;27537;57.134;-2.136;2023-04-05T00:07:18;101055.72;;;7.67;100.00
41862;BME280;27537;57.134;-2.136;2023-04-05T00:09:47;101122.06;;;7.94;100.00
41862;BME280;27537;57.134;-2.136;2023-04-05T00:12:15;101031.22;;;7.34;100.00
41862;BME280;27537;57.134;-2.136;2023-04-05T00:14:41;101055.78;;;7.64;100.00
41862;BME280;27537;57.134;-2.136;2023-04-05T00:17:08;101100.69;;;7.77;100.00
41862;BME280;27537;57.134;-2.136;2023-04-05T00:19:37;101085.97;;;7.76;100.00
41862;BME280;27537;57.134;-2.136;2023-04-05T00:22:04;101087.91;;;7.65;100.00
41862;BME280;27537;57.134;-2.136;2023-04-05T00:24:31;101085.97;;;7.76;100.00
41862;BME280;27537;57.134;-2.136;2023-04-05T00:26:59;101063.75;;;7.58;100.00
41862;BME280;27537;57.134;-2.136;2023-04-05T00:29:27;101054.06;;;7.63;100.00
41862;BME280;27537;57.134;-2.136;2023-04-05T00:31:54;101028.09;;;7.60;100.00
41862;BME280;27537;57.134;-2.136;2023-04-05T00:34:21;101083.25;;;7.80;100.00
41862;BME280;27537;57.134;-2.136;2023-04-05T00:36:48;101016.13;;;7.50;100.00
41862;BME280;27537;57.134;-2.136;2023-04-05T00:39:15;101049.44;;;7.77;100.00
41862;BME280;27537;57.134;-2.136;2023-04-05T00:41:42;101017.66;;;7.60;100.00
41862;BME280;27537;57.134;-2.136;2023-04-05T00:44:12;101005.53;;;7.57;100.00
41862;BME280;27537;57.134;-2.136;2023-04-05T00:46:39;100991.66;;;7.57;100.00
41862;BME280;27537;57.134;-2.136;2023-04-05T00:49:07;101002.09;;;7.55;100.00
41862;BME280;27537;57.134;-2.136;2023-04-05T00:51:34;101015.72;;;7.68;100.00
41862;BME280;27537;57.134;-2.136;2023-04-05T00:54:02;100994.25;;;7.58;100.00
41862;BME280;27537;57.134;-2.136;2023-04-05T00:56:29;100999.25;;;7.68;100.00
41862;BME280;27537;57.134;-2.136;2023-04-05T00:58:56;100973.56;;;7.51;100.00
41862;BME280;27537;57.134;-2.136;2023-04-05T01:01:24;100971.88;;;7.47;100.00
41862;BME280;27537;57.134;-2.136;2023-04-05T01:03:54;101017.16;;;7.83;100.00
41862;BME280;27537;57.134;-2.136;2023-04-05T01:06:43;101030.69;;;8.01;100.00
41862;BME280;27537;57.134;-2.136;2023-04-05T01:11:50;100996.88;;;7.97;100.00
41862;BME280;27537;57.134;-2.136;2023-04-05T01:14:18;100972.19;;;7.73;100.00
41862;BME280;27537;57.134;-2.136;2023-04-05T01:16:44;101015.75;;;8.07;100.00
41862;BME280;27537;57.134;-2.136;2023-04-05T01:19:15;100999.94;;;7.76;100.00
41862;BME280;27537;57.134;-2.136;2023-04-05T01:22:06;101016.16;;;7.89;100.00
41862;BME280;27537;57.134;-2.136;2023-04-05T01:28:30;101023.94;;;7.92;100.00
41862;BME280;27537;57.134;-2.136;2023-04-05T01:30:40;100991.94;;;7.84;100.00
41862;BME280;27537;57.134;-2.136;2023-04-05T01:38:32;100978.28;;;7.74;100.00
41862;BME280;27537;57.134;-2.136;2023-04-05T01:41:01;100984.97;;;7.84;100.00
41862;BME280;27537;57.134;-2.136;2023-04-05T01:43:28;100968.72;;;7.73;100.00
41862;BME280;27537;57.134;-2.136;2023-04-05T01:45:54;100989.44;;;7.79;100.00
41862;BME280;27537;57.134;-2.136;2023-04-05T01:48:21;100965.97;;;7.79;100.00
41862;BME280;27537;57.134;-2.136;2023-04-05T01:50:48;100970.50;;;7.72;100.00
41862;BME280;27537;57.134;-2.136;2023-04-05T01:53:15;100963.72;;;8.03;100.00
41862;BME280;27537;57.134;-2.136;2023-04-05T01:55:41;100933.88;;;7.77;100.00
41862;BME280;27537;57.134;-2.136;2023-04-05T01:58:08;100919.38;;;7.67;100.00
41862;BME280;27537;57.134;-2.136;2023-04-05T02:00:34;100935.91;;;7.64;100.00
41862;BME280;27537;57.134;-2.136;2023-04-05T02:03:01;100936.66;;;7.69;100.00
41862;BME280;27537;57.134;-2.136;2023-04-05T02:05:28;100953.75;;;7.83;100.00
41862;BME280;27537;57.134;-2.136;2023-04-05T02:07:55;100922.38;;;7.86;100.00
41862;BME280;27537;57.134;-2.136;2023-04-05T02:10:21;100925.75;;;7.91;100.00
41862;BME280;27537;57.134;-2.136;2023-04-05T02:12:48;100924.06;;;7.88;100.00
41862;BME280;27537;57.134;-2.136;2023-04-05T02:15:15;100948.00;;;8.06;100.00
41862;BME280;27537;57.134;-2.136;2023-04-05T02:17:42;100898.00;;;7.88;100.00
41862;BME280;27537;57.134;-2.136;2023-04-05T02:20:12;100955.31;;;8.27;100.00
41862;BME280;27537;57.134;-2.136;2023-04-05T02:22:40;100946.41;;;8.36;100.00
41862;BME280;27537;57.134;-2.136;2023-04-05T02:25:07;100948.25;;;8.31;100.00
41862;BME280;27537;57.134;-2.136;2023-04-05T02:27:35;100928.91;;;8.04;100.00
41862;BME280;27537;57.134;-2.136;2023-04-05T02:30:02;100940.53;;;8.26;100.00
41862;BME280;27537;57.134;-2.136;2023-04-05T02:32:29;100897.31;;;7.80;100.00
41862;BME280;27537;57.134;-2.136;2023-04-05T02:34:57;100934.06;;;8.07;100.00
41862;BME280;27537;57.134;-2.136;2023-04-05T02:37:24;100920.78;;;8.16;100.00
41862;BME280;27537;57.134;-2.136;2023-04-05T02:39:52;100865.78;;;7.91;100.00
41862;BME280;27537;57.134;-2.136;2023-04-05T02:42:19;100886.22;;;8.08;100.00
41862;BME280;27537;57.134;-2.136;2023-04-05T02:44:46;100877.13;;;7.90;100.00
41862;BME280;27537;57.134;-2.136;2023-04-05T02:47:13;100841.97;;;7.70;100.00
41862;BME280;27537;57.134;-2.136;2023-04-05T02:49:49;100873.44;;;7.98;100.00
41862;BME280;27537;57.134;-2.136;2023-04-05T02:52:16;100871.06;;;7.88;100.00
41862;BME280;27537;57.134;-2.136;2023-04-05T02:54:42;100861.94;;;8.06;100.00
41862;BME280;27537;57.134;-2.136;2023-04-05T02:57:10;100852.91;;;7.85;100.00
41862;BME280;27537;57.134;-2.136;2023-04-05T02:59:37;100904.22;;;8.18;100.00
41862;BME280;27537;57.134;-2.136;2023-04-05T03:02:05;100871.47;;;8.07;100.00
41862;BME280;27537;57.134;-2.136;2023-04-05T03:04:32;100882.53;;;8.16;100.00
41862;BME280;27537;57.134;-2.136;2023-04-05T03:07:00;100880.53;;;7.92;100.00
41862;BME280;27537;57.134;-2.136;2023-04-05T03:09:30;100887.09;;;8.08;100.00
41862;BME280;27537;57.134;-2.136;2023-04-05T03:12:03;100902.34;;;8.24;100.00
41862;BME280;27537;57.134;-2.136;2023-04-05T03:14:30;100853.53;;;7.94;100.00
41862;BME280;27537;57.134;-2.136;2023-04-05T03:16:57;100899.06;;;8.15;100.00
41862;BME280;27537;57.134;-2.136;2023-04-05T03:19:24;100836.63;;;7.75;100.00
41862;BME280;27537;57.134;-2.136;2023-04-05T03:21:52;100861.78;;;8.12;100.00
41862;BME280;27537;57.134;-2.136;2023-04-05T03:24:19;100858.19;;;7.82;100.00
41862;BME280;27537;57.134;-2.136;2023-04-05T03:26:46;100837.53;;;7.74;100.00
41862;BME280;27537;57.134;-2.136;2023-04-05T03:29:17;100868.25;;;7.97;100.00
41862;BME280;27537;57.134;-2.136;2023-04-05T03:31:44;100874.00;;;8.10;100.00
41862;BME280;27537;57.134;-2.136;2023-04-05T03:34:11;100846.00;;;7.82;100.00
41862;BME280;27537;57.134;-2.136;2023-04-05T03:36:38;100825.94;;;7.86;100.00
41862;BME280;27537;57.134;-2.136;2023-04-05T03:39:08;100847.44;;;7.95;100.00
41862;BME280;27537;57.134;-2.136;2023-04-05T03:41:36;100849.88;;;8.02;100.00
41862;BME280;27537;57.134;-2.136;2023-04-05T03:44:03;100854.72;;;8.15;100.00
41862;BME280;27537;57.134;-2.136;2023-04-05T03:46:30;100872.97;;;8.17;100.00
41862;BME280;27537;57.134;-2.136;2023-04-05T03:48:58;100863.63;;;8.08;100.00
41862;BME280;27537;57.134;-2.136;2023-04-05T03:51:26;100865.38;;;8.08;100.00
41862;BME280;27537;57.134;-2.136;2023-04-05T03:53:52;100826.66;;;7.91;100.00
41862;BME280;27537;57.134;-2.136;2023-04-05T03:56:20;100822.22;;;7.94;100.00
41862;BME280;27537;57.134;-2.136;2023-04-05T03:58:47;100834.22;;;8.02;100.00
41862;BME280;27537;57.134;-2.136;2023-04-05T04:01:14;100858.47;;;8.05;100.00
41862;BME280;27537;57.134;-2.136;2023-04-05T04:03:41;100851.66;;;7.99;100.00
41862;BME280;27537;57.134;-2.136;2023-04-05T04:06:08;100849.06;;;7.99;100.00
41862;BME280;27537;57.134;-2.136;2023-04-05T04:08:34;100821.06;;;8.06;100.00
41862;BME280;27537;57.134;-2.136;2023-04-05T04:11:02;100814.38;;;7.96;100.00
41862;BME280;27537;57.134;-2.136;2023-04-05T04:13:29;100838.19;;;8.16;100.00
41862;BME280;27537;57.134;-2.136;2023-04-05T04:15:55;100831.16;;;8.20;100.00
41862;BME280;27537;57.134;-2.136;2023-04-05T04:18:22;100815.97;;;8.02;100.00
41862;BME280;27537;57.134;-2.136;2023-04-05T04:20:49;100806.72;;;7.90;100.00
41862;BME280;27537;57.134;-2.136;2023-04-05T04:23:17;100789.25;;;7.93;100.00
41862;BME280;27537;57.134;-2.136;2023-04-05T04:25:44;100799.16;;;8.13;100.00
41862;BME280;27537;57.134;-2.136;2023-04-05T04:28:12;100760.66;;;7.90;100.00
41862;BME280;27537;57.134;-2.136;2023-04-05T04:30:38;100766.06;;;7.83;100.00
41862;BME280;27537;57.134;-2.136;2023-04-05T04:33:08;100788.78;;;8.10;100.00
41862;BME280;27537;57.134;-2.136;2023-04-05T04:35:35;100835.69;;;8.46;100.00
41862;BME280;27537;57.134;-2.136;2023-04-05T04:38:08;100776.44;;;8.17;100.00
41862;BME280;27537;57.134;-2.136;2023-04-05T04:40:36;100802.34;;;8.23;100.00
41862;BME280;27537;57.134;-2.136;2023-04-05T04:43:14;100826.50;;;8.31;100.00
41862;BME280;27537;57.134;-2.136;2023-04-05T04:45:45;100826.88;;;8.50;100.00
41862;BME280;27537;57.134;-2.136;2023-04-05T04:48:14;100800.78;;;8.17;100.00
41862;BME280;27537;57.134;-2.136;2023-04-05T04:50:46;100790.59;;;8.41;100.00
41862;BME280;27537;57.134;-2.136;2023-04-05T04:53:13;100811.31;;;8.47;100.00
41862;BME280;27537;57.134;-2.136;2023-04-05T04:55:43;100799.22;;;8.45;100.00
41862;BME280;27537;57.134;-2.136;2023-04-05T04:58:11;100739.72;;;7.93;100.00
41862;BME280;27537;57.134;-2.136;2023-04-05T05:00:39;100750.78;;;8.02;100.00
41862;BME280;27537;57.134;-2.136;2023-04-05T05:03:07;100754.03;;;8.10;100.00
41862;BME280;27537;57.134;-2.136;2023-04-05T05:05:48;100757.38;;;8.15;100.00
41862;BME280;27537;57.134;-2.136;2023-04-05T05:08:16;100790.31;;;8.52;100.00
41862;BME280;27537;57.134;-2.136;2023-04-05T05:10:49;100750.34;;;8.18;100.00
41862;BME280;27537;57.134;-2.136;2023-04-05T05:13:17;100771.44;;;8.42;100.00
41862;BME280;27537;57.134;-2.136;2023-04-05T05:15:44;100751.25;;;8.16;100.00
41862;BME280;27537;57.134;-2.136;2023-04-05T05:18:10;100731.94;;;7.92;100.00
41862;BME280;27537;57.134;-2.136;2023-04-05T05:20:37;100753.25;;;8.08;100.00
41862;BME280;27537;57.134;-2.136;2023-04-05T05:23:05;100743.88;;;8.01;100.00
41862;BME280;27537;57.134;-2.136;2023-04-05T05:25:31;100722.19;;;7.98;100.00
41862;BME280;27537;57.134;-2.136;2023-04-05T05:27:58;100742.50;;;8.18;100.00
41862;BME280;27537;57.134;-2.136;2023-04-05T05:30:25;100734.56;;;7.90;100.00
41862;BME280;27537;57.134;-2.136;2023-04-05T05:32:52;100786.34;;;8.37;100.00
41862;BME280;27537;57.134;-2.136;2023-04-05T05:35:19;100756.00;;;8.02;100.00
41862;BME280;27537;57.134;-2.136;2023-04-05T05:37:45;100774.63;;;8.21;100.00
41862;BME280;27537;57.134;-2.136;2023-04-05T05:40:12;100782.81;;;8.07;100.00
41862;BME280;27537;57.134;-2.136;2023-04-05T05:42:40;100770.06;;;8.29;100.00
41862;BME280;27537;57.134;-2.136;2023-04-05T05:45:08;100770.72;;;8.04;100.00
41862;BME280;27537;57.134;-2.136;2023-04-05T05:47:35;100731.31;;;7.82;100.00
41862;BME280;27537;57.134;-2.136;2023-04-05T05:50:03;100707.25;;;7.72;100.00
41862;BME280;27537;57.134;-2.136;2023-04-05T05:52:30;100684.13;;;7.60;100.00
41862;BME280;27537;57.134;-2.136;2023-04-05T05:54:57;100740.53;;;7.95;100.00
41862;BME280;27537;57.134;-2.136;2023-04-05T05:57:23;100692.75;;;7.62;100.00
41862;BME280;27537;57.134;-2.136;2023-04-05T05:59:50;100706.13;;;7.83;100.00
41862;BME280;27537;57.134;-2.136;2023-04-05T06:02:17;100725.84;;;7.91;100.00
41862;BME280;27537;57.134;-2.136;2023-04-05T06:04:43;100727.50;;;7.95;100.00
41862;BME280;27537;57.134;-2.136;2023-04-05T06:07:10;100724.53;;;7.75;100.00
41862;BME280;27537;57.134;-2.136;2023-04-05T06:09:37;100757.09;;;7.93;100.00
41862;BME280;27537;57.134;-2.136;2023-04-05T06:12:04;100723.66;;;7.76;100.00
41862;BME280;27537;57.134;-2.136;2023-04-05T06:14:31;100753.56;;;7.61;100.00
41862;BME280;27537;57.134;-2.136;2023-04-05T06:16:57;100754.38;;;7.63;100.00
41862;BME280;27537;57.134;-2.136;2023-04-05T06:19:24;100729.59;;;7.47;100.00
41862;BME280;27537;57.134;-2.136;2023-04-05T06:21:51;100708.66;;;7.51;100.00
41862;BME280;27537;57.134;-2.136;2023-04-05T06:24:18;100724.03;;;7.60;100.00
41862;BME280;27537;57.134;-2.136;2023-04-05T06:26:44;100770.88;;;7.98;100.00
41862;BME280;27537;57.134;-2.136;2023-04-05T06:29:11;100732.72;;;7.61;100.00
41862;BME280;27537;57.134;-2.136;2023-04-05T06:31:37;100724.09;;;7.59;100.00
41862;BME280;27537;57.134;-2.136;2023-04-05T06:34:04;100724.38;;;7.83;100.00
41862;BME280;27537;57.134;-2.136;2023-04-05T06:36:31;100733.59;;;7.62;100.00
41862;BME280;27537;57.134;-2.136;2023-04-05T06:38:59;100710.63;;;7.76;100.00
41862;BME280;27537;57.134;-2.136;2023-04-05T06:41:26;100725.47;;;7.74;100.00
41862;BME280;27537;57.134;-2.136;2023-04-05T06:43:54;100742.75;;;7.76;100.00
41862;BME280;27537;57.134;-2.136;2023-04-05T06:46:22;100764.44;;;8.11;100.00
41862;BME280;27537;57.134;-2.136;2023-04-05T06:48:50;100744.81;;;7.96;100.00
41862;BME280;27537;57.134;-2.136;2023-04-05T06:51:17;100762.47;;;8.20;100.00
41862;BME280;27537;57.134;-2.136;2023-04-05T06:53:44;100710.34;;;7.87;100.00
41862;BME280;27537;57.134;-2.136;2023-04-05T06:56:11;100750.75;;;8.03;100.00
41862;BME280;27537;57.134;-2.136;2023-04-05T06:58:38;100737.00;;;7.96;100.00
41862;BME280;27537;57.134;-2.136;2023-04-05T07:01:04;100762.03;;;8.35;100.00
41862;BME280;27537;57.134;-2.136;2023-04-05T07:03:32;100734.41;;;8.28;100.00
41862;BME280;27537;57.134;-2.136;2023-04-05T07:05:59;100730.03;;;7.98;100.00
41862;BME280;27537;57.134;-2.136;2023-04-05T07:08:31;100762.47;;;8.20;100.00
41862;BME280;27537;57.134;-2.136;2023-04-05T07:10:58;100751.25;;;8.16;100.00
41862;BME280;27537;57.134;-2.136;2023-04-05T07:13:25;100746.34;;;8.05;100.00
41862;BME280;27537;57.134;-2.136;2023-04-05T07:16:01;100761.94;;;8.07;100.00
41862;BME280;27537;57.134;-2.136;2023-04-05T07:18:28;100726.56;;;7.96;100.00
41862;BME280;27537;57.134;-2.136;2023-04-05T07:20:57;100745.50;;;8.05;100.00
41862;BME280;27537;57.134;-2.136;2023-04-05T07:23:27;100737.97;;;7.94;100.00
41862;BME280;27537;57.134;-2.136;2023-04-05T07:25:59;100724.63;;;7.72;100.00
41862;BME280;27537;57.134;-2.136;2023-04-05T07:28:35;100718.91;;;7.92;100.00
41862;BME280;27537;57.134;-2.136;2023-04-05T07:31:04;100752.44;;;8.06;100.00
41862;BME280;27537;57.134;-2.136;2023-04-05T07:33:31;100730.16;;;7.92;100.00
41862;BME280;27537;57.134;-2.136;2023-04-05T07:35:58;100764.03;;;7.94;100.00
41862;BME280;27537;57.134;-2.136;2023-04-05T07:38:26;100718.78;;;7.95;100.00
41862;BME280;27537;57.134;-2.136;2023-04-05T07:40:53;100736.69;;;8.09;100.00
41862;BME280;27537;57.134;-2.136;2023-04-05T07:43:19;100707.59;;;7.91;100.00
41862;BME280;27537;57.134;-2.136;2023-04-05T07:45:46;100733.50;;;7.97;100.00
41862;BME280;27537;57.134;-2.136;2023-04-05T07:48:13;100693.66;;;7.92;100.00
41862;BME280;27537;57.134;-2.136;2023-04-05T07:50:40;100714.50;;;7.94;100.00
41862;BME280;27537;57.134;-2.136;2023-04-05T07:53:08;100665.59;;;7.71;100.00
41862;BME280;27537;57.134;-2.136;2023-04-05T07:55:37;100748.53;;;8.21;100.00
41862;BME280;27537;57.134;-2.136;2023-04-05T07:58:04;100707.59;;;7.91;100.00
41862;BME280;27537;57.134;-2.136;2023-04-05T08:00:31;100693.00;;;7.84;100.00
41862;BME280;27537;57.134;-2.136;2023-04-05T08:02:58;100730.38;;;8.16;100.00
41862;BME280;27537;57.134;-2.136;2023-04-05T08:05:27;100732.41;;;8.06;100.00
41862;BME280;27537;57.134;-2.136;2023-04-05T08:07:54;100693.97;;;7.82;100.00
41862;BME280;27537;57.134;-2.136;2023-04-05T08:10:24;100731.84;;;8.26;100.00
41862;BME280;27537;57.134;-2.136;2023-04-05T08:12:51;100673.53;;;7.97;100.00
41862;BME280;27537;57.134;-2.136;2023-04-05T08:15:17;100734.13;;;8.39;100.00
41862;BME280;27537;57.134;-2.136;2023-04-05T08:17:44;100707.94;;;8.10;100.00
41862;BME280;27537;57.134;-2.136;2023-04-05T08:20:11;100724.06;;;8.25;100.00
41862;BME280;27537;57.134;-2.136;2023-04-05T08:22:38;100726.59;;;8.28;100.00
41862;BME280;27537;57.134;-2.136;2023-04-05T08:25:05;100702.31;;;8.26;100.00
41862;BME280;27537;57.134;-2.136;2023-04-05T08:27:32;100694.75;;;8.16;100.00
41862;BME280;27537;57.134;-2.136;2023-04-05T08:29:58;100715.44;;;8.23;100.00
41862;BME280;27537;57.134;-2.136;2023-04-05T08:32:25;100689.38;;;8.21;100.00
41862;BME280;27537;57.134;-2.136;2023-04-05T08:34:52;100731.81;;;8.28;100.00
41862;BME280;27537;57.134;-2.136;2023-04-05T08:37:18;100694.53;;;8.24;100.00
41862;BME280;27537;57.134;-2.136;2023-04-05T08:39:45;100679.41;;;8.06;100.00
41862;BME280;27537;57.134;-2.136;2023-04-05T08:42:17;100729.09;;;8.32;100.00
41862;BME280;27537;57.134;-2.136;2023-04-05T08:44:45;100737.66;;;8.67;100.00
41862;BME280;27537;57.134;-2.136;2023-04-05T08:47:18;100744.88;;;8.59;100.00
41862;BME280;27537;57.134;-2.136;2023-04-05T08:49:46;100669.81;;;8.06;100.00
41862;BME280;27537;57.134;-2.136;2023-04-05T08:52:13;100662.09;;;8.03;100.00
41862;BME280;27537;57.134;-2.136;2023-04-05T08:54:40;100755.16;;;8.64;100.00
41862;BME280;27537;57.134;-2.136;2023-04-05T08:57:07;100726.91;;;8.17;100.00
41862;BME280;27537;57.134;-2.136;2023-04-05T08:59:37;100730.81;;;8.32;100.00
41862;BME280;27537;57.134;-2.136;2023-04-05T09:02:11;100748.69;;;8.47;100.00
41862;BME280;27537;57.134;-2.136;2023-04-05T09:04:42;100749.19;;;8.60;100.00
41862;BME280;27537;57.134;-2.136;2023-04-05T09:07:12;100660.41;;;8.02;100.00
41862;BME280;27537;57.134;-2.136;2023-04-05T09:09:45;100728.31;;;8.60;100.00
41862;BME280;27537;57.134;-2.136;2023-04-05T09:12:12;100661.56;;;8.22;100.00
41862;BME280;27537;57.134;-2.136;2023-04-05T09:14:39;100718.66;;;8.62;100.00
41862;BME280;27537;57.134;-2.136;2023-04-05T09:17:06;100717.59;;;8.69;100.00
41862;BME280;27537;57.134;-2.136;2023-04-05T09:19:33;100726.94;;;8.48;100.00
41862;BME280;27537;57.134;-2.136;2023-04-05T09:24:40;100733.91;;;8.76;100.00
41862;BME280;27537;57.134;-2.136;2023-04-05T09:27:14;100744.00;;;8.88;100.00
41862;BME280;27537;57.134;-2.136;2023-04-05T09:29:45;100717.78;;;8.63;100.00
41862;BME280;27537;57.134;-2.136;2023-04-05T09:32:14;100737.41;;;8.77;100.00
41862;BME280;27537;57.134;-2.136;2023-04-05T09:34:42;100724.97;;;8.55;100.00
41862;BME280;27537;57.134;-2.136;2023-04-05T09:37:19;100742.44;;;8.53;100.00
41862;BME280;27537;57.134;-2.136;2023-04-05T09:39:48;100736.50;;;8.78;100.00
41862;BME280;27537;57.134;-2.136;2023-04-05T09:42:18;100734.41;;;8.61;100.00
41862;BME280;27537;57.134;-2.136;2023-04-05T09:47:20;100728.75;;;8.74;100.00
41862;BME280;27537;57.134;-2.136;2023-04-05T09:49:46;100689.88;;;8.65;100.00
41862;BME280;27537;57.134;-2.136;2023-04-05T09:52:31;100692.28;;;8.73;100.00
41862;BME280;27537;57.134;-2.136;2023-04-05T09:55:00;100676.16;;;8.59;100.00
41862;BME280;27537;57.134;-2.136;2023-04-05T09:57:32;100692.09;;;8.49;100.00
41862;BME280;27537;57.134;-2.136;2023-04-05T09:59:59;100726.00;;;8.79;100.00
41862;BME280;27537;57.134;-2.136;2023-04-05T10:02:34;100715.03;;;8.68;100.00
41862;BME280;27537;57.134;-2.136;2023-04-05T10:05:06;100662.50;;;8.19;100.00
41862;BME280;27537;57.134;-2.136;2023-04-05T10:07:33;100661.97;;;8.38;100.00
41862;BME280;27537;57.134;-2.136;2023-04-05T10:10:00;100678.88;;;8.55;100.00
41862;BME280;27537;57.134;-2.136;2023-04-05T10:12:27;100721.47;;;8.86;100.00
41862;BME280;27537;57.134;-2.136;2023-04-05T10:14:54;100691.13;;;8.53;100.00
41862;BME280;27537;57.134;-2.136;2023-04-05T10:17:38;100739.38;;;8.68;100.00
41862;BME280;27537;57.134;-2.136;2023-04-05T10:20:19;100727.47;;;8.88;100.00
41862;BME280;27537;57.134;-2.136;2023-04-05T10:28:16;100715.81;;;9.00;100.00
41862;BME280;27537;57.134;-2.136;2023-04-05T10:30:46;100692.09;;;8.49;100.00
41862;BME280;27537;57.134;-2.136;2023-04-05T10:33:29;100690.16;;;8.56;100.00
41862;BME280;27537;57.134;-2.136;2023-04-05T10:41:18;100681.44;;;8.85;100.00
41862;BME280;27537;57.134;-2.136;2023-04-05T10:43:46;100679.28;;;8.98;100.00
41862;BME280;27537;57.134;-2.136;2023-04-05T10:46:18;100731.47;;;9.55;100.00
41862;BME280;27537;57.134;-2.136;2023-04-05T10:49:04;100682.16;;;9.44;100.00
41862;BME280;27537;57.134;-2.136;2023-04-05T10:51:33;100679.06;;;9.58;100.00
41862;BME280;27537;57.134;-2.136;2023-04-05T10:54:00;100701.28;;;9.71;100.00
41862;BME280;27537;57.134;-2.136;2023-04-05T10:56:27;100699.13;;;9.57;100.00
41862;BME280;27537;57.134;-2.136;2023-04-05T10:58:54;100699.94;;;9.32;100.00
41862;BME280;27537;57.134;-2.136;2023-04-05T11:01:22;100713.97;;;9.57;100.00
41862;BME280;27537;57.134;-2.136;2023-04-05T11:03:51;100737.41;;;9.85;100.00
41862;BME280;27537;57.134;-2.136;2023-04-05T11:08:47;100667.78;;;9.30;100.00
41862;BME280;27537;57.134;-2.136;2023-04-05T11:11:16;100719.09;;;9.60;100.00
41862;BME280;27537;57.134;-2.136;2023-04-05T11:16:45;100741.56;;;9.39;100.00
41862;BME280;27537;57.134;-2.136;2023-04-05T11:19:15;100730.00;;;9.46;100.00
41862;BME280;27537;57.134;-2.136;2023-04-05T11:21:42;100712.56;;;9.46;100.00
41862;BME280;27537;57.134;-2.136;2023-04-05T11:24:11;100680.31;;;9.21;100.00
41862;BME280;27537;57.134;-2.136;2023-04-05T11:29:09;100704.50;;;9.26;100.00
41862;BME280;27537;57.134;-2.136;2023-04-05T11:31:56;100690.19;;;9.38;100.00
41862;BME280;27537;57.134;-2.136;2023-04-05T11:34:23;100672.75;;;9.38;100.00
41862;BME280;27537;57.134;-2.136;2023-04-05T11:36:50;100664.28;;;9.57;100.00
41862;BME280;27537;57.134;-2.136;2023-04-05T11:42:01;100672.00;;;9.35;100.00
41862;BME280;27537;57.134;-2.136;2023-04-05T11:44:39;100668.41;;;9.64;100.00
41862;BME280;27537;57.134;-2.136;2023-04-05T11:47:06;100656.53;;;9.28;100.00
41862;BME280;27537;57.134;-2.136;2023-04-05T11:49:33;100704.63;;;9.49;100.00
41862;BME280;27537;57.134;-2.136;2023-04-05T11:52:16;100660.16;;;9.24;100.00
41862;BME280;27537;57.134;-2.136;2023-04-05T11:54:44;100620.06;;;9.25;100.00
41862;BME280;27537;57.134;-2.136;2023-04-05T11:57:18;100672.72;;;9.65;100.00
41862;BME280;27537;57.134;-2.136;2023-04-05T11:59:51;100690.34;;;9.85;100.00
41862;BME280;27537;57.134;-2.136;2023-04-05T12:02:19;100650.72;;;9.45;100.00
41862;BME280;27537;57.134;-2.136;2023-04-05T12:04:54;100682.75;;;9.52;100.00
41862;BME280;27537;57.134;-2.136;2023-04-05T12:07:25;100695.25;;;9.69;100.00
41862;BME280;27537;57.134;-2.136;2023-04-05T12:12:38;100680.06;;;9.79;100.00
41862;BME280;27537;57.134;-2.136;2023-04-05T12:15:07;100684.88;;;9.91;100.00
41862;BME280;27537;57.134;-2.136;2023-04-05T12:17:47;100652.50;;;9.95;100.00
41862;BME280;27537;57.134;-2.136;2023-04-05T12:20:24;100666.44;;;9.71;100.00
41862;BME280;27537;57.134;-2.136;2023-04-05T12:22:52;100695.50;;;9.86;100.00
41862;BME280;27537;57.134;-2.136;2023-04-05T12:25:20;100666.69;;;9.63;100.00
41862;BME280;27537;57.134;-2.136;2023-04-05T12:27:47;100669.09;;;9.69;100.00
41862;BME280;27537;57.134;-2.136;2023-04-05T12:30:18;100689.50;;;9.84;100.00
41862;BME280;27537;57.134;-2.136;2023-04-05T12:32:49;100694.72;;;9.84;100.00
41862;BME280;27537;57.134;-2.136;2023-04-05T12:35:21;100692.72;;;9.91;100.00
41862;BME280;27537;57.134;-2.136;2023-04-05T12:37:50;100692.34;;;9.77;100.00
41862;BME280;27537;57.134;-2.136;2023-04-05T12:40:21;100655.34;;;9.64;100.00
41862;BME280;27537;57.134;-2.136;2023-04-05T12:42:49;100648.00;;;9.48;100.00
41862;BME280;27537;57.134;-2.136;2023-04-05T12:45:16;100684.41;;;9.80;100.00
41862;BME280;27537;57.134;-2.136;2023-04-05T12:47:49;100667.38;;;9.43;100.00
41862;BME280;27537;57.134;-2.136;2023-04-05T12:50:17;100698.66;;;9.71;100.00
41862;BME280;27537;57.134;-2.136;2023-04-05T12:52:54;100650.94;;;9.39;100.00
41862;BME280;27537;57.134;-2.136;2023-04-05T12:55:22;100662.16;;;9.43;100.00
41862;BME280;27537;57.134;-2.136;2023-04-05T12:57:53;100646.19;;;9.25;100.00
41862;BME280;27537;57.134;-2.136;2023-04-05T13:00:21;100677.41;;;9.55;100.00
41862;BME280;27537;57.134;-2.136;2023-04-05T13:02:52;100651.41;;;9.50;100.00
41862;BME280;27537;57.134;-2.136;2023-04-05T13:05:24;100663.03;;;9.42;100.00
41862;BME280;27537;57.134;-2.136;2023-04-05T13:07:51;100687.97;;;9.52;100.00
41862;BME280;27537;57.134;-2.136;2023-04-05T13:10:20;100675.81;;;9.51;100.00
41862;BME280;27537;57.134;-2.136;2023-04-05T13:12:47;100659.44;;;9.46;100.00
41862;BME280;27537;57.134;-2.136;2023-04-05T13:15:15;100661.94;;;9.74;100.00
41862;BME280;27537;57.134;-2.136;2023-04-05T13:17:43;100639.94;;;9.56;100.00
41862;BME280;27537;57.134;-2.136;2023-04-05T13:20:16;100653.97;;;9.27;100.00
41862;BME280;27537;57.134;-2.136;2023-04-05T13:22:44;100665.88;;;9.36;100.00
41862;BME280;27537;57.134;-2.136;2023-04-05T13:25:12;100662.00;;;9.47;100.00
41862;BME280;27537;57.134;-2.136;2023-04-05T13:27:39;100626.13;;;8.99;100.00
41862;BME280;27537;57.134;-2.136;2023-04-05T13:30:06;100628.25;;;9.15;100.00